Accueil
METAR-TAF:

METAR-TAF

Aéroports :

Aéroport international de Wellington

Wellington, Nouvelle-Zélande

latitude: 41-20S, longitude: 174-48E, altitude: 12 m

Observation

Le bulletin a été fait il y a 30 minutes, à 19:00 UTC
Vent 3 kt de nord
Température 11°C
Humidité 82%
Pression 1019 hPa
Visibilité 10 km ou plus

METAR: NZWN 201900Z AUTO 36003KT 9999 NCD 11/08 Q1019 NOSIG

Heure: 08:30 (19:30 UTC)

Prévision

Le bulletin a été fait il y a 2 heures et 29 minutes, à 17:01 UTC
Prévision valable du 20 à 18 UTC au 21 à 18 UTC
Vent 5 kt de nord
Visibilité 10 km ou plus
pas de nuages en-dessous de 1500 mètres et pas de cumulonimbus.
Evoluant progressivement
du 20 à 23 UTC au 21 à 01 UTC
Vent 15 kt de nord

TAF: NZWN 201701Z 2018/2118 36005KT CAVOK BECMG 2023/2101 36015KT

Observations et prévisions météorologiques de plus de 4000 aéroports (messages METAR et TAF).

Les stations disponibles sont représentées par des disques jaunes et rouges sur la carte.

Passer la souris dessus pour voir le nom de la station.

Cliquer dessus pour voir les observations et prévisions météorologiques.

Pour changer de carte: cliquez sur les boutons verts avec une croix noire pour zoomer, sur le bouton vert avec un tiret pour effectuer un zoom arrière, ou sur les flèches vertes pour les cartes adjacentes.


METAR-TAF: